Terminal Aerodrome Forecast
Issued by NWS Upton, NY

Home | Current Version | Previous Version | Text Only | Print | Product List | Glossary On
Versions: 1 2 3 4 5 6 7 8 9 10 11 12 13 14 15 16 17 18 19 20 21 22 23 24 25 26 27 28 29 30 31 32 33 34 35 36 37 38 39 40 41
011
FTUS41 KOKX 191245 AAA
TAFISP
TAF AMD
KISP 191245Z 1913/2012 VRB03KT 2SM BR SCT050
     FM191500 32005KT P6SM SCT050
     FM191700 30009KT P6SM SCT050
     FM200100 VRB04KT P6SM FEW020=

USA.gov is the U.S. government's official web portal to all federal, state and local government web resources and services.